sensor_id;sensor_type;location;lat;lon;timestamp;P1;durP1;ratioP1;P2;durP2;ratioP2
7525;SDS011;3804;50.860;6.208;2023-02-28T00:01:28;4.40;;;3.67;;
7525;SDS011;3804;50.860;6.208;2023-02-28T00:03:56;6.00;;;3.60;;
7525;SDS011;3804;50.860;6.208;2023-02-28T00:06:23;5.27;;;3.67;;
7525;SDS011;3804;50.860;6.208;2023-02-28T00:08:50;5.67;;;3.70;;
7525;SDS011;3804;50.860;6.208;2023-02-28T00:11:17;4.70;;;3.63;;
7525;SDS011;3804;50.860;6.208;2023-02-28T00:13:44;5.33;;;3.27;;
7525;SDS011;3804;50.860;6.208;2023-02-28T00:16:14;9.00;;;3.97;;
7525;SDS011;3804;50.860;6.208;2023-02-28T00:18:41;4.03;;;2.80;;
7525;SDS011;3804;50.860;6.208;2023-02-28T00:21:08;3.77;;;3.00;;
7525;SDS011;3804;50.860;6.208;2023-02-28T00:23:35;4.23;;;3.40;;
7525;SDS011;3804;50.860;6.208;2023-02-28T00:26:03;4.07;;;2.93;;
7525;SDS011;3804;50.860;6.208;2023-02-28T00:28:30;6.53;;;3.23;;
7525;SDS011;3804;50.860;6.208;2023-02-28T00:30:58;5.87;;;3.23;;
7525;SDS011;3804;50.860;6.208;2023-02-28T00:33:27;6.40;;;3.10;;
7525;SDS011;3804;50.860;6.208;2023-02-28T00:36:01;3.67;;;3.20;;
7525;SDS011;3804;50.860;6.208;2023-02-28T00:38:28;6.53;;;3.47;;
7525;SDS011;3804;50.860;6.208;2023-02-28T00:40:54;6.00;;;3.60;;
7525;SDS011;3804;50.860;6.208;2023-02-28T00:43:21;3.73;;;3.37;;
7525;SDS011;3804;50.860;6.208;2023-02-28T00:45:48;5.23;;;3.10;;
7525;SDS011;3804;50.860;6.208;2023-02-28T00:48:15;6.30;;;3.17;;
7525;SDS011;3804;50.860;6.208;2023-02-28T00:50:42;4.87;;;3.47;;
7525;SDS011;3804;50.860;6.208;2023-02-28T00:53:09;4.33;;;2.87;;
7525;SDS011;3804;50.860;6.208;2023-02-28T00:55:35;4.20;;;3.00;;
7525;SDS011;3804;50.860;6.208;2023-02-28T00:58:03;6.33;;;3.00;;
7525;SDS011;3804;50.860;6.208;2023-02-28T01:00:30;5.07;;;3.43;;
7525;SDS011;3804;50.860;6.208;2023-02-28T01:02:56;4.67;;;2.90;;
7525;SDS011;3804;50.860;6.208;2023-02-28T01:05:23;7.33;;;3.27;;
7525;SDS011;3804;50.860;6.208;2023-02-28T01:07:50;7.10;;;3.07;;
7525;SDS011;3804;50.860;6.208;2023-02-28T01:10:17;5.20;;;3.10;;
7525;SDS011;3804;50.860;6.208;2023-02-28T01:12:43;5.70;;;3.13;;
7525;SDS011;3804;50.860;6.208;2023-02-28T01:15:10;3.93;;;2.50;;
7525;SDS011;3804;50.860;6.208;2023-02-28T01:17:37;3.37;;;2.80;;
7525;SDS011;3804;50.860;6.208;2023-02-28T01:20:04;5.20;;;3.23;;
7525;SDS011;3804;50.860;6.208;2023-02-28T01:22:31;4.33;;;2.97;;
7525;SDS011;3804;50.860;6.208;2023-02-28T01:24:58;4.13;;;2.80;;
7525;SDS011;3804;50.860;6.208;2023-02-28T01:27:24;4.07;;;3.30;;
7525;SDS011;3804;50.860;6.208;2023-02-28T01:29:52;5.03;;;3.10;;
7525;SDS011;3804;50.860;6.208;2023-02-28T01:32:19;3.90;;;2.70;;
7525;SDS011;3804;50.860;6.208;2023-02-28T01:34:46;5.93;;;2.80;;
7525;SDS011;3804;50.860;6.208;2023-02-28T01:37:13;5.47;;;3.07;;
7525;SDS011;3804;50.860;6.208;2023-02-28T01:39:42;4.07;;;2.67;;
7525;SDS011;3804;50.860;6.208;2023-02-28T01:42:09;6.57;;;3.47;;
7525;SDS011;3804;50.860;6.208;2023-02-28T01:47:21;5.37;;;3.50;;
7525;SDS011;3804;50.860;6.208;2023-02-28T01:49:48;4.67;;;3.00;;
7525;SDS011;3804;50.860;6.208;2023-02-28T01:52:16;6.00;;;3.60;;
7525;SDS011;3804;50.860;6.208;2023-02-28T01:54:46;4.80;;;3.30;;
7525;SDS011;3804;50.860;6.208;2023-02-28T01:57:15;3.50;;;3.00;;
7525;SDS011;3804;50.860;6.208;2023-02-28T01:59:44;5.30;;;3.20;;
7525;SDS011;3804;50.860;6.208;2023-02-28T02:02:16;7.13;;;3.40;;
7525;SDS011;3804;50.860;6.208;2023-02-28T02:04:54;3.63;;;3.00;;
7525;SDS011;3804;50.860;6.208;2023-02-28T02:07:21;4.67;;;3.60;;
7525;SDS011;3804;50.860;6.208;2023-02-28T02:09:48;3.97;;;3.03;;
7525;SDS011;3804;50.860;6.208;2023-02-28T02:12:27;5.00;;;3.37;;
7525;SDS011;3804;50.860;6.208;2023-02-28T02:17:28;5.43;;;3.00;;
7525;SDS011;3804;50.860;6.208;2023-02-28T02:27:56;4.53;;;3.13;;
7525;SDS011;3804;50.860;6.208;2023-02-28T02:36:09;7.13;;;3.23;;
7525;SDS011;3804;50.860;6.208;2023-02-28T02:43:46;4.60;;;3.17;;
7525;SDS011;3804;50.860;6.208;2023-02-28T02:46:18;4.33;;;2.97;;
7525;SDS011;3804;50.860;6.208;2023-02-28T02:48:46;3.60;;;2.90;;
7525;SDS011;3804;50.860;6.208;2023-02-28T02:51:14;5.23;;;3.30;;
7525;SDS011;3804;50.860;6.208;2023-02-28T02:53:46;4.97;;;3.27;;
7525;SDS011;3804;50.860;6.208;2023-02-28T02:56:17;6.53;;;3.47;;
7525;SDS011;3804;50.860;6.208;2023-02-28T02:58:45;4.17;;;3.10;;
7525;SDS011;3804;50.860;6.208;2023-02-28T03:01:20;4.60;;;2.90;;
7525;SDS011;3804;50.860;6.208;2023-02-28T03:03:58;6.60;;;3.07;;
7525;SDS011;3804;50.860;6.208;2023-02-28T03:06:26;4.30;;;3.13;;
7525;SDS011;3804;50.860;6.208;2023-02-28T03:08:53;3.97;;;3.40;;
7525;SDS011;3804;50.860;6.208;2023-02-28T03:11:21;4.83;;;3.30;;
7525;SDS011;3804;50.860;6.208;2023-02-28T03:21:43;7.27;;;3.33;;
7525;SDS011;3804;50.860;6.208;2023-02-28T03:24:31;5.83;;;2.90;;
7525;SDS011;3804;50.860;6.208;2023-02-28T03:27:23;4.10;;;3.10;;
7525;SDS011;3804;50.860;6.208;2023-02-28T03:29:47;3.83;;;3.43;;
7525;SDS011;3804;50.860;6.208;2023-02-28T03:32:18;3.87;;;3.07;;
7525;SDS011;3804;50.860;6.208;2023-02-28T03:34:50;5.90;;;3.40;;
7525;SDS011;3804;50.860;6.208;2023-02-28T03:37:19;4.93;;;2.93;;
7525;SDS011;3804;50.860;6.208;2023-02-28T03:39:59;4.57;;;3.10;;
7525;SDS011;3804;50.860;6.208;2023-02-28T03:42:27;3.23;;;2.83;;
7525;SDS011;3804;50.860;6.208;2023-02-28T03:44:57;4.13;;;2.90;;
7525;SDS011;3804;50.860;6.208;2023-02-28T03:47:26;5.30;;;3.17;;
7525;SDS011;3804;50.860;6.208;2023-02-28T03:49:54;4.73;;;3.30;;
7525;SDS011;3804;50.860;6.208;2023-02-28T03:52:24;5.50;;;3.07;;
7525;SDS011;3804;50.860;6.208;2023-02-28T03:54:52;6.50;;;3.60;;
7525;SDS011;3804;50.860;6.208;2023-02-28T03:57:28;4.27;;;3.00;;
7525;SDS011;3804;50.860;6.208;2023-02-28T04:00:00;6.40;;;3.37;;
7525;SDS011;3804;50.860;6.208;2023-02-28T04:02:37;3.90;;;3.20;;
7525;SDS011;3804;50.860;6.208;2023-02-28T04:05:06;5.43;;;3.40;;
7525;SDS011;3804;50.860;6.208;2023-02-28T04:07:33;5.00;;;3.70;;
7525;SDS011;3804;50.860;6.208;2023-02-28T04:10:00;4.33;;;3.40;;
7525;SDS011;3804;50.860;6.208;2023-02-28T04:12:26;4.00;;;3.60;;
7525;SDS011;3804;50.860;6.208;2023-02-28T04:14:53;4.53;;;3.53;;
7525;SDS011;3804;50.860;6.208;2023-02-28T04:17:20;8.23;;;3.80;;
7525;SDS011;3804;50.860;6.208;2023-02-28T04:19:47;7.87;;;3.63;;
7525;SDS011;3804;50.860;6.208;2023-02-28T04:22:13;5.83;;;3.80;;
7525;SDS011;3804;50.860;6.208;2023-02-28T04:24:40;7.23;;;3.73;;
7525;SDS011;3804;50.860;6.208;2023-02-28T04:27:08;4.33;;;3.50;;
7525;SDS011;3804;50.860;6.208;2023-02-28T04:29:35;5.67;;;3.90;;
7525;SDS011;3804;50.860;6.208;2023-02-28T04:32:02;4.97;;;3.50;;
7525;SDS011;3804;50.860;6.208;2023-02-28T04:34:30;6.43;;;3.73;;
7525;SDS011;3804;50.860;6.208;2023-02-28T04:36:57;5.87;;;4.00;;
7525;SDS011;3804;50.860;6.208;2023-02-28T04:39:38;6.70;;;4.37;;
7525;SDS011;3804;50.860;6.208;2023-02-28T04:42:05;5.13;;;3.40;;
7525;SDS011;3804;50.860;6.208;2023-02-28T04:44:32;4.93;;;3.83;;
7525;SDS011;3804;50.860;6.208;2023-02-28T04:46:59;6.00;;;4.07;;
7525;SDS011;3804;50.860;6.208;2023-02-28T04:49:26;4.70;;;3.87;;
7525;SDS011;3804;50.860;6.208;2023-02-28T04:51:52;9.40;;;4.40;;
7525;SDS011;3804;50.860;6.208;2023-02-28T04:54:19;6.33;;;4.40;;
7525;SDS011;3804;50.860;6.208;2023-02-28T04:56:46;7.43;;;4.10;;
7525;SDS011;3804;50.860;6.208;2023-02-28T04:59:14;7.53;;;4.00;;
7525;SDS011;3804;50.860;6.208;2023-02-28T05:01:44;6.70;;;4.50;;
7525;SDS011;3804;50.860;6.208;2023-02-28T05:04:11;7.77;;;4.80;;
7525;SDS011;3804;50.860;6.208;2023-02-28T05:06:38;8.60;;;4.87;;
7525;SDS011;3804;50.860;6.208;2023-02-28T05:09:05;8.47;;;4.67;;
7525;SDS011;3804;50.860;6.208;2023-02-28T05:11:33;7.00;;;5.03;;
7525;SDS011;3804;50.860;6.208;2023-02-28T05:14:02;8.40;;;5.33;;
7525;SDS011;3804;50.860;6.208;2023-02-28T05:16:29;8.97;;;5.60;;
7525;SDS011;3804;50.860;6.208;2023-02-28T05:18:56;12.27;;;5.80;;
7525;SDS011;3804;50.860;6.208;2023-02-28T05:21:33;9.60;;;6.10;;
7525;SDS011;3804;50.860;6.208;2023-02-28T05:24:02;9.33;;;6.00;;
7525;SDS011;3804;50.860;6.208;2023-02-28T05:26:29;11.43;;;6.77;;
7525;SDS011;3804;50.860;6.208;2023-02-28T05:28:56;10.43;;;6.90;;
7525;SDS011;3804;50.860;6.208;2023-02-28T05:31:23;10.00;;;6.27;;
7525;SDS011;3804;50.860;6.208;2023-02-28T05:33:50;12.50;;;7.57;;
7525;SDS011;3804;50.860;6.208;2023-02-28T05:36:16;8.17;;;6.00;;
7525;SDS011;3804;50.860;6.208;2023-02-28T05:38:45;11.23;;;7.10;;
7525;SDS011;3804;50.860;6.208;2023-02-28T05:41:12;9.77;;;6.80;;
7525;SDS011;3804;50.860;6.208;2023-02-28T05:43:39;12.17;;;6.80;;
7525;SDS011;3804;50.860;6.208;2023-02-28T05:46:06;13.80;;;7.77;;
7525;SDS011;3804;50.860;6.208;2023-02-28T05:48:34;10.87;;;7.43;;
7525;SDS011;3804;50.860;6.208;2023-02-28T05:51:01;11.23;;;7.50;;
7525;SDS011;3804;50.860;6.208;2023-02-28T05:53:29;9.87;;;6.90;;
7525;SDS011;3804;50.860;6.208;2023-02-28T05:55:56;12.10;;;7.27;;
7525;SDS011;3804;50.860;6.208;2023-02-28T05:58:23;12.30;;;7.70;;
7525;SDS011;3804;50.860;6.208;2023-02-28T06:00:51;11.03;;;7.60;;
7525;SDS011;3804;50.860;6.208;2023-02-28T06:03:18;12.17;;;7.30;;
7525;SDS011;3804;50.860;6.208;2023-02-28T06:05:46;15.77;;;7.70;;
7525;SDS011;3804;50.860;6.208;2023-02-28T06:08:13;14.47;;;7.57;;
7525;SDS011;3804;50.860;6.208;2023-02-28T06:10:39;12.47;;;7.93;;
7525;SDS011;3804;50.860;6.208;2023-02-28T06:13:06;9.93;;;7.13;;
7525;SDS011;3804;50.860;6.208;2023-02-28T06:15:33;13.03;;;8.37;;
7525;SDS011;3804;50.860;6.208;2023-02-28T06:18:00;11.67;;;7.83;;
7525;SDS011;3804;50.860;6.208;2023-02-28T06:20:27;13.80;;;7.37;;
7525;SDS011;3804;50.860;6.208;2023-02-28T06:22:57;11.83;;;6.67;;
7525;SDS011;3804;50.860;6.208;2023-02-28T06:25:27;10.57;;;7.70;;
7525;SDS011;3804;50.860;6.208;2023-02-28T06:27:54;14.00;;;7.77;;
7525;SDS011;3804;50.860;6.208;2023-02-28T06:30:21;13.87;;;7.63;;
7525;SDS011;3804;50.860;6.208;2023-02-28T06:32:53;13.90;;;8.70;;
7525;SDS011;3804;50.860;6.208;2023-02-28T06:35:21;12.37;;;8.87;;
7525;SDS011;3804;50.860;6.208;2023-02-28T06:37:47;12.43;;;8.27;;
7525;SDS011;3804;50.860;6.208;2023-02-28T06:40:14;15.00;;;7.93;;
7525;SDS011;3804;50.860;6.208;2023-02-28T06:42:41;12.10;;;7.27;;
7525;SDS011;3804;50.860;6.208;2023-02-28T06:45:08;11.53;;;7.73;;
7525;SDS011;3804;50.860;6.208;2023-02-28T06:47:36;11.90;;;7.27;;
7525;SDS011;3804;50.860;6.208;2023-02-28T06:50:04;11.33;;;7.17;;
7525;SDS011;3804;50.860;6.208;2023-02-28T06:52:31;9.20;;;6.37;;
7525;SDS011;3804;50.860;6.208;2023-02-28T06:54:58;16.87;;;7.30;;
7525;SDS011;3804;50.860;6.208;2023-02-28T06:57:29;11.40;;;6.40;;
7525;SDS011;3804;50.860;6.208;2023-02-28T07:00:00;9.70;;;6.17;;
7525;SDS011;3804;50.860;6.208;2023-02-28T07:02:27;9.60;;;6.00;;
7525;SDS011;3804;50.860;6.208;2023-02-28T07:04:54;11.63;;;6.43;;
7525;SDS011;3804;50.860;6.208;2023-02-28T07:07:21;11.07;;;5.90;;
7525;SDS011;3804;50.860;6.208;2023-02-28T07:09:48;10.70;;;6.10;;
7525;SDS011;3804;50.860;6.208;2023-02-28T07:12:15;8.07;;;6.23;;
7525;SDS011;3804;50.860;6.208;2023-02-28T07:14:42;10.90;;;6.30;;
7525;SDS011;3804;50.860;6.208;2023-02-28T07:17:09;7.60;;;5.23;;
7525;SDS011;3804;50.860;6.208;2023-02-28T07:19:38;7.53;;;4.93;;
7525;SDS011;3804;50.860;6.208;2023-02-28T07:22:05;8.37;;;5.17;;
7525;SDS011;3804;50.860;6.208;2023-02-28T07:24:32;10.10;;;5.27;;
7525;SDS011;3804;50.860;6.208;2023-02-28T07:26:59;8.60;;;5.40;;
7525;SDS011;3804;50.860;6.208;2023-02-28T07:29:27;7.97;;;4.80;;
7525;SDS011;3804;50.860;6.208;2023-02-28T07:31:53;8.83;;;5.10;;
7525;SDS011;3804;50.860;6.208;2023-02-28T07:34:20;7.17;;;4.60;;
7525;SDS011;3804;50.860;6.208;2023-02-28T07:36:47;9.47;;;4.80;;
7525;SDS011;3804;50.860;6.208;2023-02-28T07:39:14;9.10;;;4.57;;
7525;SDS011;3804;50.860;6.208;2023-02-28T07:41:40;7.57;;;4.97;;
7525;SDS011;3804;50.860;6.208;2023-02-28T07:44:10;7.07;;;4.57;;
7525;SDS011;3804;50.860;6.208;2023-02-28T07:46:37;6.37;;;4.40;;
7525;SDS011;3804;50.860;6.208;2023-02-28T07:49:05;6.23;;;3.03;;
7525;SDS011;3804;50.860;6.208;2023-02-28T07:51:32;4.33;;;3.23;;
7525;SDS011;3804;50.860;6.208;2023-02-28T07:53:59;6.50;;;3.70;;
7525;SDS011;3804;50.860;6.208;2023-02-28T07:56:25;4.17;;;2.93;;
7525;SDS011;3804;50.860;6.208;2023-02-28T07:58:53;5.77;;;3.80;;
7525;SDS011;3804;50.860;6.208;2023-02-28T08:01:20;7.10;;;3.63;;
7525;SDS011;3804;50.860;6.208;2023-02-28T08:03:47;6.30;;;3.27;;
7525;SDS011;3804;50.860;6.208;2023-02-28T08:06:21;4.80;;;2.97;;
7525;SDS011;3804;50.860;6.208;2023-02-28T08:08:48;6.40;;;3.80;;
7525;SDS011;3804;50.860;6.208;2023-02-28T08:11:16;4.40;;;3.40;;
7525;SDS011;3804;50.860;6.208;2023-02-28T08:13:43;7.17;;;3.60;;
7525;SDS011;3804;50.860;6.208;2023-02-28T08:16:11;5.60;;;3.73;;
7525;SDS011;3804;50.860;6.208;2023-02-28T08:18:38;6.43;;;3.30;;
7525;SDS011;3804;50.860;6.208;2023-02-28T08:21:06;7.73;;;4.13;;
7525;SDS011;3804;50.860;6.208;2023-02-28T08:23:33;6.13;;;3.10;;
7525;SDS011;3804;50.860;6.208;2023-02-28T08:26:00;4.70;;;3.53;;
7525;SDS011;3804;50.860;6.208;2023-02-28T08:28:26;6.03;;;4.07;;
7525;SDS011;3804;50.860;6.208;2023-02-28T08:30:53;4.67;;;3.57;;
7525;SDS011;3804;50.860;6.208;2023-02-28T08:33:21;5.50;;;3.10;;
7525;SDS011;3804;50.860;6.208;2023-02-28T08:35:48;5.77;;;3.20;;
7525;SDS011;3804;50.860;6.208;2023-02-28T08:38:15;4.47;;;2.90;;
7525;SDS011;3804;50.860;6.208;2023-02-28T08:40:41;4.77;;;2.67;;
7525;SDS011;3804;50.860;6.208;2023-02-28T08:43:09;8.27;;;2.90;;
7525;SDS011;3804;50.860;6.208;2023-02-28T08:45:35;2.57;;;2.00;;
7525;SDS011;3804;50.860;6.208;2023-02-28T08:48:02;3.17;;;2.67;;
7525;SDS011;3804;50.860;6.208;2023-02-28T08:50:29;4.03;;;2.53;;
7525;SDS011;3804;50.860;6.208;2023-02-28T08:52:56;5.77;;;3.47;;
7525;SDS011;3804;50.860;6.208;2023-02-28T08:55:23;3.43;;;2.53;;
7525;SDS011;3804;50.860;6.208;2023-02-28T08:57:50;3.40;;;2.27;;
7525;SDS011;3804;50.860;6.208;2023-02-28T09:00:17;4.57;;;2.40;;
7525;SDS011;3804;50.860;6.208;2023-02-28T09:02:44;2.83;;;2.43;;
7525;SDS011;3804;50.860;6.208;2023-02-28T09:05:10;2.47;;;1.97;;
7525;SDS011;3804;50.860;6.208;2023-02-28T09:07:37;4.30;;;2.90;;
7525;SDS011;3804;50.860;6.208;2023-02-28T09:10:04;3.83;;;2.53;;
7525;SDS011;3804;50.860;6.208;2023-02-28T09:12:33;4.80;;;2.63;;
7525;SDS011;3804;50.860;6.208;2023-02-28T09:15:00;3.60;;;2.37;;
7525;SDS011;3804;50.860;6.208;2023-02-28T09:17:27;7.70;;;2.83;;
7525;SDS011;3804;50.860;6.208;2023-02-28T09:19:56;8.13;;;3.17;;
7525;SDS011;3804;50.860;6.208;2023-02-28T09:22:23;3.67;;;2.33;;
7525;SDS011;3804;50.860;6.208;2023-02-28T09:24:50;3.47;;;2.00;;
7525;SDS011;3804;50.860;6.208;2023-02-28T09:27:17;4.83;;;2.97;;
7525;SDS011;3804;50.860;6.208;2023-02-28T09:29:43;2.57;;;2.10;;
7525;SDS011;3804;50.860;6.208;2023-02-28T09:32:11;1.67;;;1.57;;
7525;SDS011;3804;50.860;6.208;2023-02-28T09:34:37;1.80;;;1.60;;
7525;SDS011;3804;50.860;6.208;2023-02-28T09:37:04;1.50;;;1.40;;
7525;SDS011;3804;50.860;6.208;2023-02-28T09:39:31;1.97;;;1.70;;
7525;SDS011;3804;50.860;6.208;2023-02-28T09:41:58;3.53;;;1.47;;
7525;SDS011;3804;50.860;6.208;2023-02-28T09:44:29;2.20;;;1.77;;
7525;SDS011;3804;50.860;6.208;2023-02-28T09:46:58;2.13;;;1.50;;
7525;SDS011;3804;50.860;6.208;2023-02-28T09:49:28;2.07;;;1.70;;
7525;SDS011;3804;50.860;6.208;2023-02-28T09:52:03;1.60;;;1.50;;
7525;SDS011;3804;50.860;6.208;2023-02-28T09:54:31;2.33;;;1.53;;
7525;SDS011;3804;50.860;6.208;2023-02-28T09:59:31;5.20;;;1.40;;
7525;SDS011;3804;50.860;6.208;2023-02-28T10:04:41;1.60;;;1.47;;
7525;SDS011;3804;50.860;6.208;2023-02-28T10:07:18;1.63;;;1.43;;
7525;SDS011;3804;50.860;6.208;2023-02-28T10:09:46;2.03;;;1.20;;
7525;SDS011;3804;50.860;6.208;2023-02-28T10:12:15;1.57;;;1.47;;
7525;SDS011;3804;50.860;6.208;2023-02-28T10:14:44;2.90;;;1.73;;
7525;SDS011;3804;50.860;6.208;2023-02-28T10:17:12;1.80;;;1.70;;
7525;SDS011;3804;50.860;6.208;2023-02-28T10:19:46;1.30;;;1.20;;
7525;SDS011;3804;50.860;6.208;2023-02-28T10:22:19;2.03;;;1.90;;
7525;SDS011;3804;50.860;6.208;2023-02-28T10:24:53;1.87;;;1.20;;
7525;SDS011;3804;50.860;6.208;2023-02-28T10:27:21;2.13;;;1.67;;
7525;SDS011;3804;50.860;6.208;2023-02-28T10:29:55;4.50;;;1.93;;
7525;SDS011;3804;50.860;6.208;2023-02-28T10:32:24;1.77;;;1.40;;
7525;SDS011;3804;50.860;6.208;2023-02-28T10:34:55;1.80;;;1.70;;
7525;SDS011;3804;50.860;6.208;2023-02-28T10:37:24;1.40;;;1.30;;
7525;SDS011;3804;50.860;6.208;2023-02-28T10:39:50;4.37;;;2.17;;
7525;SDS011;3804;50.860;6.208;2023-02-28T10:44:47;1.90;;;1.40;;
7525;SDS011;3804;50.860;6.208;2023-02-28T10:47:15;2.13;;;1.80;;
7525;SDS011;3804;50.860;6.208;2023-02-28T10:49:49;1.10;;;1.00;;
7525;SDS011;3804;50.860;6.208;2023-02-28T10:52:32;3.07;;;1.40;;
7525;SDS011;3804;50.860;6.208;2023-02-28T10:55:18;1.10;;;1.10;;
7525;SDS011;3804;50.860;6.208;2023-02-28T10:57:46;2.30;;;1.57;;
7525;SDS011;3804;50.860;6.208;2023-02-28T11:00:18;1.37;;;1.27;;
7525;SDS011;3804;50.860;6.208;2023-02-28T11:02:46;3.57;;;1.17;;
7525;SDS011;3804;50.860;6.208;2023-02-28T11:07:55;2.13;;;1.13;;
7525;SDS011;3804;50.860;6.208;2023-02-28T11:10:24;2.47;;;1.70;;
7525;SDS011;3804;50.860;6.208;2023-02-28T11:12:54;1.57;;;1.47;;
7525;SDS011;3804;50.860;6.208;2023-02-28T11:17:58;1.60;;;1.50;;
7525;SDS011;3804;50.860;6.208;2023-02-28T11:20:30;1.73;;;1.47;;
7525;SDS011;3804;50.860;6.208;2023-02-28T11:22:57;2.63;;;1.50;;
7525;SDS011;3804;50.860;6.208;2023-02-28T11:25:35;1.90;;;1.80;;
7525;SDS011;3804;50.860;6.208;2023-02-28T11:28:08;2.30;;;1.80;;
7525;SDS011;3804;50.860;6.208;2023-02-28T11:30:59;1.90;;;1.70;;
7525;SDS011;3804;50.860;6.208;2023-02-28T11:33:40;1.97;;;1.83;;
7525;SDS011;3804;50.860;6.208;2023-02-28T11:36:10;3.17;;;1.50;;
7525;SDS011;3804;50.860;6.208;2023-02-28T11:38:37;2.03;;;1.60;;
7525;SDS011;3804;50.860;6.208;2023-02-28T11:41:09;4.20;;;2.23;;
7525;SDS011;3804;50.860;6.208;2023-02-28T11:46:33;5.67;;;3.33;;
7525;SDS011;3804;50.860;6.208;2023-02-28T11:49:04;5.53;;;2.90;;
7525;SDS011;3804;50.860;6.208;2023-02-28T11:51:47;2.73;;;1.90;;
7525;SDS011;3804;50.860;6.208;2023-02-28T11:57:00;1.83;;;1.60;;
7525;SDS011;3804;50.860;6.208;2023-02-28T12:09:44;1.90;;;1.73;;
7525;SDS011;3804;50.860;6.208;2023-02-28T12:20:11;2.10;;;1.90;;
7525;SDS011;3804;50.860;6.208;2023-02-28T12:27:40;2.30;;;1.90;;
7525;SDS011;3804;50.860;6.208;2023-02-28T12:32:45;2.20;;;2.10;;
7525;SDS011;3804;50.860;6.208;2023-02-28T12:35:14;2.77;;;2.23;;
7525;SDS011;3804;50.860;6.208;2023-02-28T12:40:41;2.43;;;2.13;;
7525;SDS011;3804;50.860;6.208;2023-02-28T12:43:09;3.87;;;1.93;;
7525;SDS011;3804;50.860;6.208;2023-02-28T12:48:09;3.40;;;1.80;;
7525;SDS011;3804;50.860;6.208;2023-02-28T12:50:37;2.10;;;1.80;;
7525;SDS011;3804;50.860;6.208;2023-02-28T12:53:15;2.47;;;1.90;;
7525;SDS011;3804;50.860;6.208;2023-02-28T12:58:34;3.83;;;2.00;;
7525;SDS011;3804;50.860;6.208;2023-02-28T13:06:10;2.03;;;1.87;;
7525;SDS011;3804;50.860;6.208;2023-02-28T13:09:04;2.20;;;2.00;;
7525;SDS011;3804;50.860;6.208;2023-02-28T13:13:58;3.00;;;2.00;;
7525;SDS011;3804;50.860;6.208;2023-02-28T13:16:25;2.27;;;2.03;;
7525;SDS011;3804;50.860;6.208;2023-02-28T13:18:53;2.73;;;1.83;;
7525;SDS011;3804;50.860;6.208;2023-02-28T13:21:41;2.23;;;1.80;;
7525;SDS011;3804;50.860;6.208;2023-02-28T13:24:08;2.60;;;2.30;;
7525;SDS011;3804;50.860;6.208;2023-02-28T13:32:18;2.23;;;2.03;;
7525;SDS011;3804;50.860;6.208;2023-02-28T13:34:27;3.43;;;1.83;;
7525;SDS011;3804;50.860;6.208;2023-02-28T13:37:29;2.50;;;2.30;;
7525;SDS011;3804;50.860;6.208;2023-02-28T13:47:36;2.50;;;2.27;;
7525;SDS011;3804;50.860;6.208;2023-02-28T13:50:15;2.97;;;2.40;;
7525;SDS011;3804;50.860;6.208;2023-02-28T13:55:24;2.87;;;2.17;;
7525;SDS011;3804;50.860;6.208;2023-02-28T14:00:43;2.77;;;2.03;;
7525;SDS011;3804;50.860;6.208;2023-02-28T14:03:23;2.17;;;1.97;;
7525;SDS011;3804;50.860;6.208;2023-02-28T14:08:36;2.50;;;2.30;;
7525;SDS011;3804;50.860;6.208;2023-02-28T14:11:05;3.43;;;2.53;;
7525;SDS011;3804;50.860;6.208;2023-02-28T14:13:42;2.57;;;2.27;;
7525;SDS011;3804;50.860;6.208;2023-02-28T14:16:14;6.47;;;2.70;;
7525;SDS011;3804;50.860;6.208;2023-02-28T14:18:47;3.77;;;2.50;;
7525;SDS011;3804;50.860;6.208;2023-02-28T14:21:19;4.40;;;2.67;;
7525;SDS011;3804;50.860;6.208;2023-02-28T14:34:36;3.73;;;2.80;;
7525;SDS011;3804;50.860;6.208;2023-02-28T14:37:04;5.47;;;2.50;;
7525;SDS011;3804;50.860;6.208;2023-02-28T14:39:31;2.67;;;2.10;;
7525;SDS011;3804;50.860;6.208;2023-02-28T14:41:59;3.60;;;2.47;;
7525;SDS011;3804;50.860;6.208;2023-02-28T14:44:30;3.87;;;2.63;;
7525;SDS011;3804;50.860;6.208;2023-02-28T14:47:01;2.50;;;2.10;;
7525;SDS011;3804;50.860;6.208;2023-02-28T14:49:36;2.90;;;2.60;;
7525;SDS011;3804;50.860;6.208;2023-02-28T14:52:12;3.47;;;2.53;;
7525;SDS011;3804;50.860;6.208;2023-02-28T14:54:41;3.77;;;2.70;;
7525;SDS011;3804;50.860;6.208;2023-02-28T14:57:24;3.30;;;2.53;;
7525;SDS011;3804;50.860;6.208;2023-02-28T14:59:58;6.97;;;2.20;;
7525;SDS011;3804;50.860;6.208;2023-02-28T15:02:26;3.43;;;2.57;;
7525;SDS011;3804;50.860;6.208;2023-02-28T15:04:57;4.53;;;2.60;;
7525;SDS011;3804;50.860;6.208;2023-02-28T15:07:25;2.17;;;1.97;;
7525;SDS011;3804;50.860;6.208;2023-02-28T15:12:37;3.70;;;2.60;;
7525;SDS011;3804;50.860;6.208;2023-02-28T15:15:05;4.10;;;2.43;;
7525;SDS011;3804;50.860;6.208;2023-02-28T15:17:34;3.63;;;2.80;;
7525;SDS011;3804;50.860;6.208;2023-02-28T15:20:01;3.07;;;2.77;;
7525;SDS011;3804;50.860;6.208;2023-02-28T15:22:30;4.03;;;3.07;;
7525;SDS011;3804;50.860;6.208;2023-02-28T15:24:59;4.77;;;2.97;;
7525;SDS011;3804;50.860;6.208;2023-02-28T15:27:29;4.23;;;3.27;;
7525;SDS011;3804;50.860;6.208;2023-02-28T15:30:00;5.70;;;3.03;;
7525;SDS011;3804;50.860;6.208;2023-02-28T15:32:33;4.57;;;2.83;;
7525;SDS011;3804;50.860;6.208;2023-02-28T15:37:47;5.70;;;3.40;;
7525;SDS011;3804;50.860;6.208;2023-02-28T15:40:16;4.10;;;3.17;;
7525;SDS011;3804;50.860;6.208;2023-02-28T15:42:57;6.13;;;3.70;;
7525;SDS011;3804;50.860;6.208;2023-02-28T15:45:27;4.23;;;3.03;;
7525;SDS011;3804;50.860;6.208;2023-02-28T15:47:55;5.40;;;3.30;;
7525;SDS011;3804;50.860;6.208;2023-02-28T15:50:28;12.37;;;6.33;;
7525;SDS011;3804;50.860;6.208;2023-02-28T15:52:57;19.33;;;9.67;;
7525;SDS011;3804;50.860;6.208;2023-02-28T15:55:26;4.43;;;4.03;;
7525;SDS011;3804;50.860;6.208;2023-02-28T15:57:55;4.10;;;3.70;;
7525;SDS011;3804;50.860;6.208;2023-02-28T16:00:25;6.70;;;4.50;;
7525;SDS011;3804;50.860;6.208;2023-02-28T16:02:52;9.77;;;6.17;;
7525;SDS011;3804;50.860;6.208;2023-02-28T16:07:48;5.27;;;4.23;;
7525;SDS011;3804;50.860;6.208;2023-02-28T16:10:15;4.50;;;3.87;;
7525;SDS011;3804;50.860;6.208;2023-02-28T16:12:42;4.93;;;3.83;;
7525;SDS011;3804;50.860;6.208;2023-02-28T16:15:18;5.00;;;3.20;;
7525;SDS011;3804;50.860;6.208;2023-02-28T16:17:46;4.77;;;3.20;;
7525;SDS011;3804;50.860;6.208;2023-02-28T16:20:14;4.40;;;3.40;;
7525;SDS011;3804;50.860;6.208;2023-02-28T16:22:41;7.83;;;4.80;;
7525;SDS011;3804;50.860;6.208;2023-02-28T16:25:15;6.27;;;3.30;;
7525;SDS011;3804;50.860;6.208;2023-02-28T16:27:42;4.17;;;3.37;;
7525;SDS011;3804;50.860;6.208;2023-02-28T16:30:21;4.27;;;3.10;;
7525;SDS011;3804;50.860;6.208;2023-02-28T16:32:49;3.63;;;2.83;;
7525;SDS011;3804;50.860;6.208;2023-02-28T16:35:17;3.30;;;2.90;;
7525;SDS011;3804;50.860;6.208;2023-02-28T16:37:44;5.07;;;2.77;;
7525;SDS011;3804;50.860;6.208;2023-02-28T16:40:15;5.27;;;2.73;;
7525;SDS011;3804;50.860;6.208;2023-02-28T16:42:42;5.27;;;2.77;;
7525;SDS011;3804;50.860;6.208;2023-02-28T16:45:31;3.17;;;2.87;;
7525;SDS011;3804;50.860;6.208;2023-02-28T16:47:56;5.23;;;3.93;;
7525;SDS011;3804;50.860;6.208;2023-02-28T16:50:25;10.43;;;6.33;;
7525;SDS011;3804;50.860;6.208;2023-02-28T16:52:52;7.67;;;3.87;;
7525;SDS011;3804;50.860;6.208;2023-02-28T16:55:21;5.80;;;4.83;;
7525;SDS011;3804;50.860;6.208;2023-02-28T16:57:55;6.40;;;3.87;;
7525;SDS011;3804;50.860;6.208;2023-02-28T17:00:23;7.47;;;3.13;;
7525;SDS011;3804;50.860;6.208;2023-02-28T17:02:50;4.87;;;4.07;;
7525;SDS011;3804;50.860;6.208;2023-02-28T17:05:17;6.33;;;4.33;;
7525;SDS011;3804;50.860;6.208;2023-02-28T17:07:45;8.50;;;6.23;;
7525;SDS011;3804;50.860;6.208;2023-02-28T17:12:42;7.53;;;5.37;;
7525;SDS011;3804;50.860;6.208;2023-02-28T17:15:09;10.13;;;6.63;;
7525;SDS011;3804;50.860;6.208;2023-02-28T17:17:36;10.37;;;7.40;;
7525;SDS011;3804;50.860;6.208;2023-02-28T17:20:04;8.40;;;6.10;;
7525;SDS011;3804;50.860;6.208;2023-02-28T17:22:31;13.10;;;8.87;;
7525;SDS011;3804;50.860;6.208;2023-02-28T17:24:58;7.27;;;6.00;;
7525;SDS011;3804;50.860;6.208;2023-02-28T17:27:25;4.27;;;3.37;;
7525;SDS011;3804;50.860;6.208;2023-02-28T17:29:51;4.93;;;3.93;;
7525;SDS011;3804;50.860;6.208;2023-02-28T17:32:18;5.80;;;3.97;;
7525;SDS011;3804;50.860;6.208;2023-02-28T17:34:45;5.00;;;3.40;;
7525;SDS011;3804;50.860;6.208;2023-02-28T17:37:12;3.60;;;2.97;;
7525;SDS011;3804;50.860;6.208;2023-02-28T17:39:39;8.77;;;4.50;;
7525;SDS011;3804;50.860;6.208;2023-02-28T17:42:06;7.33;;;5.13;;